Time;durP1;ratioP1;P1;durP2;ratioP2;P2;SDS_P1;SDS_P2;PMS_P1;PMS_P2;Temp;Humidity;BMP_temperature;BMP_pressure;BME280_temperature;BME280_humidity;BME280_pressure;Samples;Min_cycle;Max_cycle;Signal;HPM_P1;HPM_P2
2021/06/30 00:01:59;;;;;;;7.70;5.97;;;;;;;16.56;88.31;100705.06;5020972;28;20460;-68
2021/06/30 00:04:25;;;;;;;8.65;5.97;;;;;;;16.61;89.10;100698.69;5021993;28;20038;-68
2021/06/30 00:06:52;;;;;;;8.43;5.00;;;;;;;16.53;87.96;100705.19;5033683;28;20127;-68
2021/06/30 00:09:19;;;;;;;8.75;5.40;;;;;;;16.47;88.23;100690.56;5031681;28;20060;-69
2021/06/30 00:11:47;;;;;;;8.48;4.85;;;;;;;16.42;88.86;100682.88;5014804;28;20501;-69
2021/06/30 00:14:14;;;;;;;7.20;4.18;;;;;;;16.42;88.57;100682.88;5014058;28;20468;-69
2021/06/30 00:16:41;;;;;;;6.30;3.80;;;;;;;16.35;88.80;100684.09;5013447;28;20441;-68
2021/06/30 00:19:10;;;;;;;5.43;3.67;;;;;;;16.25;89.43;100691.53;5019278;28;20045;-68
2021/06/30 00:21:37;;;;;;;7.43;3.88;;;;;;;16.24;89.52;100688.97;5023525;28;20057;-68
2021/06/30 00:24:05;;;;;;;6.88;3.78;;;;;;;16.26;89.42;100698.50;5013868;28;20049;-68
2021/06/30 00:26:31;;;;;;;6.20;4.35;;;;;;;16.15;89.73;100706.81;5013351;28;20501;-68
2021/06/30 00:28:59;;;;;;;9.13;4.70;;;;;;;16.23;89.26;100708.25;5017513;28;20061;-66
2021/06/30 00:31:26;;;;;;;7.32;4.57;;;;;;;16.29;89.08;100711.47;5019565;28;20053;-67
2021/06/30 00:33:52;;;;;;;7.28;4.72;;;;;;;16.30;89.15;100712.31;5030006;28;20053;-66
2021/06/30 00:36:18;;;;;;;6.10;4.65;;;;;;;16.35;88.79;100720.84;5044684;28;20049;-66
2021/06/30 00:38:45;;;;;;;7.45;4.90;;;;;;;16.30;88.93;100715.78;5035034;28;20045;-67
2021/06/30 00:41:11;;;;;;;6.93;4.20;;;;;;;16.34;88.37;100727.00;5027000;28;20054;-66
2021/06/30 00:43:38;;;;;;;6.93;4.38;;;;;;;16.30;89.22;100721.03;5019749;28;20049;-67
2021/06/30 00:46:06;;;;;;;6.72;4.82;;;;;;;16.34;89.85;100715.66;5030055;28;20053;-67
2021/06/30 00:48:32;;;;;;;6.97;4.53;;;;;;;16.39;89.79;100719.81;5013655;28;20433;-67
2021/06/30 00:50:59;;;;;;;7.40;5.00;;;;;;;16.44;89.22;100704.69;5013509;28;20053;-66
2021/06/30 00:53:25;;;;;;;7.13;4.47;;;;;;;16.48;88.61;100706.25;5013643;28;20513;-68
2021/06/30 00:55:52;;;;;;;10.18;5.07;;;;;;;16.48;89.30;100702.75;5013054;28;20054;-67
2021/06/30 00:58:19;;;;;;;8.13;4.47;;;;;;;16.54;88.75;100701.66;5021089;28;20042;-68
2021/06/30 01:00:45;;;;;;;8.95;4.93;;;;;;;16.56;88.93;100695.44;5022978;28;20073;-67
2021/06/30 01:03:13;;;;;;;5.18;4.13;;;;;;;16.61;88.65;100689.97;5013728;28;20096;-68
2021/06/30 01:05:40;;;;;;;6.68;4.68;;;;;;;16.61;88.07;100682.94;5030822;28;20060;-68
2021/06/30 01:08:07;;;;;;;7.20;4.30;;;;;;;16.62;87.67;100678.50;5031714;28;20389;-68
2021/06/30 01:10:33;;;;;;;8.93;5.47;;;;;;;16.59;87.53;100676.88;5023040;28;20050;-67
2021/06/30 01:13:00;;;;;;;9.80;4.72;;;;;;;16.50;88.05;100679.09;5023468;28;20539;-68
2021/06/30 01:15:26;;;;;;;9.15;4.85;;;;;;;16.37;88.75;100677.00;5032925;28;20049;-68
2021/06/30 01:17:53;;;;;;;8.90;4.93;;;;;;;16.35;89.25;100673.59;5032453;28;20136;-67
2021/06/30 01:20:21;;;;;;;8.10;4.95;;;;;;;16.27;89.43;100673.09;5031010;28;20049;-67
2021/06/30 01:25:43;;;;;;;7.03;4.85;;;;;;;16.35;89.68;100681.47;5088875;27;20389;-68
2021/06/30 01:28:09;;;;;;;8.07;5.53;;;;;;;16.39;89.10;100684.81;5058444;28;20049;-68
2021/06/30 01:30:36;;;;;;;7.40;4.90;;;;;;;16.41;89.28;100685.59;5049879;28;20095;-68
2021/06/30 01:33:03;;;;;;;8.13;5.82;;;;;;;16.40;89.37;100684.75;5049296;28;20426;-68
2021/06/30 01:35:30;;;;;;;7.78;5.05;;;;;;;16.46;89.13;100683.63;5064471;28;20106;-66
2021/06/30 01:37:57;;;;;;;7.68;4.95;;;;;;;16.46;89.49;100681.84;5057895;28;20061;-68
2021/06/30 01:40:24;;;;;;;9.25;5.72;;;;;;;16.50;88.84;100674.69;5052843;28;20049;-69
2021/06/30 01:42:54;;;;;;;7.85;5.18;;;;;;;16.59;88.14;100678.66;5066813;28;20055;-69
2021/06/30 01:45:20;;;;;;;9.43;5.70;;;;;;;16.58;87.40;100666.47;5049213;28;20144;-68
2021/06/30 01:47:47;;;;;;;6.75;5.13;;;;;;;16.56;87.99;100671.78;5048496;28;20056;-68
2021/06/30 01:50:14;;;;;;;7.03;5.13;;;;;;;16.53;87.90;100668.44;5048242;28;20052;-68
2021/06/30 01:52:41;;;;;;;8.45;5.00;;;;;;;16.54;88.31;100657.00;5048532;28;20049;-68
2021/06/30 01:55:10;;;;;;;8.07;5.68;;;;;;;16.56;88.65;100655.16;5049761;28;20045;-68
2021/06/30 01:57:40;;;;;;;7.43;5.57;;;;;;;16.60;88.80;100654.97;5047776;28;20060;-68
2021/06/30 02:00:10;;;;;;;8.32;4.70;;;;;;;16.67;88.50;100654.69;5048763;28;20053;-68
2021/06/30 02:02:36;;;;;;;7.05;5.20;;;;;;;16.61;87.85;100651.41;5064500;28;20052;-68
2021/06/30 02:05:08;;;;;;;6.60;5.38;;;;;;;16.62;88.12;100652.25;5050269;28;20056;-68
2021/06/30 02:07:34;;;;;;;8.02;5.00;;;;;;;16.61;87.58;100648.78;5047867;28;20045;-68
2021/06/30 02:10:01;;;;;;;7.20;5.00;;;;;;;16.57;87.73;100652.47;5048627;28;20053;-68
2021/06/30 02:12:28;;;;;;;7.40;4.93;;;;;;;16.58;87.53;100650.72;5048807;28;20045;-69
2021/06/30 02:14:54;;;;;;;6.75;4.13;;;;;;;16.55;87.64;100650.84;5048286;28;20096;-68
2021/06/30 02:17:22;;;;;;;6.13;4.30;;;;;;;16.54;87.77;100655.25;5047843;28;20068;-68
2021/06/30 02:19:49;;;;;;;7.53;4.80;;;;;;;16.57;88.27;100659.50;5055451;28;20415;-68
2021/06/30 02:22:16;;;;;;;6.82;4.65;;;;;;;16.56;88.37;100663.91;5048563;28;20053;-66
2021/06/30 02:24:43;;;;;;;9.15;4.95;;;;;;;16.58;88.03;100659.41;5047498;28;20079;-67
2021/06/30 02:27:10;;;;;;;5.97;4.53;;;;;;;16.61;88.37;100650.56;5048421;28;20045;-66
2021/06/30 02:29:36;;;;;;;7.18;4.90;;;;;;;16.61;88.09;100661.06;5066615;28;20052;-66
2021/06/30 02:32:03;;;;;;;7.03;4.80;;;;;;;16.54;88.25;100660.50;5059495;28;20045;-65
2021/06/30 02:34:31;;;;;;;9.32;5.03;;;;;;;16.51;88.12;100660.63;5054267;28;20056;-65
2021/06/30 02:36:58;;;;;;;6.22;4.78;;;;;;;16.54;88.61;100657.00;5045099;28;20053;-66
2021/06/30 02:39:25;;;;;;;7.10;4.72;;;;;;;16.50;88.56;100652.84;5053991;28;20091;-66
2021/06/30 02:41:51;;;;;;;6.68;4.35;;;;;;;16.45;88.73;100656.50;5054142;28;20060;-66
2021/06/30 02:44:18;;;;;;;7.40;5.05;;;;;;;16.52;88.96;100656.25;5038830;28;20388;-66
2021/06/30 02:46:44;;;;;;;7.05;5.18;;;;;;;16.57;88.97;100662.13;5033988;28;20470;-66
2021/06/30 02:49:11;;;;;;;7.72;5.63;;;;;;;16.54;89.00;100650.00;5034162;28;20103;-66
2021/06/30 02:51:39;;;;;;;8.18;5.68;;;;;;;16.56;89.28;100656.03;5035664;28;20057;-67
2021/06/30 02:54:05;;;;;;;9.30;5.25;;;;;;;16.54;89.53;100650.00;5034157;28;20052;-67
2021/06/30 02:56:31;;;;;;;9.88;5.32;;;;;;;16.56;88.98;100655.16;5033298;28;20049;-66
2021/06/30 02:58:58;;;;;;;11.07;5.57;;;;;;;16.53;89.06;100658.78;5033835;28;20049;-67
2021/06/30 03:01:24;;;;;;;7.05;5.25;;;;;;;16.57;89.08;100655.09;5035285;28;20053;-67
2021/06/30 03:03:51;;;;;;;9.25;5.13;;;;;;;16.60;89.05;100657.59;5050569;28;20064;-68
2021/06/30 03:06:17;;;;;;;7.10;5.00;;;;;;;16.55;88.94;100656.09;5053529;28;20456;-67
2021/06/30 03:08:45;;;;;;;7.38;4.90;;;;;;;16.54;88.95;100664.88;5050828;28;20111;-67
2021/06/30 03:11:11;;;;;;;8.50;5.50;;;;;;;16.57;88.60;100662.97;5034018;28;20053;-67
2021/06/30 03:13:38;;;;;;;6.10;4.82;;;;;;;16.60;88.70;100669.88;5033807;28;20045;-66
2021/06/30 03:16:05;;;;;;;8.32;5.10;;;;;;;16.62;88.46;100668.88;5033752;28;20056;-67
2021/06/30 03:18:31;;;;;;;6.80;4.82;;;;;;;16.59;88.60;100679.50;5033265;28;20503;-66
2021/06/30 03:20:58;;;;;;;7.50;5.50;;;;;;;16.51;89.19;100679.00;5052853;28;20118;-67
2021/06/30 03:23:24;;;;;;;7.20;5.70;;;;;;;16.47;89.35;100680.06;5053453;28;20048;-66
2021/06/30 03:25:52;;;;;;;10.80;5.78;;;;;;;16.54;89.01;100683.25;5049063;28;20392;-67
2021/06/30 03:28:19;;;;;;;7.40;5.50;;;;;;;16.57;88.89;100676.09;5033052;28;20042;-67
2021/06/30 03:30:45;;;;;;;6.30;4.50;;;;;;;16.61;88.55;100677.66;5033567;28;20088;-67
2021/06/30 03:33:11;;;;;;;7.15;5.35;;;;;;;16.59;87.96;100687.38;5033323;28;20103;-67
2021/06/30 03:35:38;;;;;;;7.22;4.50;;;;;;;16.54;88.47;100685.88;5047719;28;20056;-67
2021/06/30 03:38:04;;;;;;;8.52;4.47;;;;;;;16.48;88.15;100682.63;5033491;28;20057;-66
2021/06/30 03:40:31;;;;;;;8.77;5.45;;;;;;;16.42;88.90;100689.94;5049188;28;20052;-67
2021/06/30 03:42:59;;;;;;;6.53;5.20;;;;;;;16.42;89.45;100690.75;5050637;28;20053;-67
2021/06/30 03:45:25;;;;;;;10.23;5.38;;;;;;;16.46;88.97;100689.72;5032988;28;20053;-66
2021/06/30 03:47:52;;;;;;;7.38;4.72;;;;;;;16.52;88.41;100682.50;5031838;28;20046;-68
2021/06/30 03:50:18;;;;;;;7.18;4.70;;;;;;;16.59;88.42;100686.56;5032815;28;20053;-67
2021/06/30 03:52:45;;;;;;;8.98;5.10;;;;;;;16.59;88.67;100683.91;5034267;28;20057;-67
2021/06/30 03:55:12;;;;;;;7.38;4.85;;;;;;;16.57;88.91;100681.34;5032777;28;20049;-67
2021/06/30 03:57:39;;;;;;;7.18;5.10;;;;;;;16.51;89.15;100686.88;5032102;28;20045;-67
2021/06/30 04:00:08;;;;;;;7.00;4.70;;;;;;;16.44;89.49;100682.84;5033422;28;20053;-66
2021/06/30 04:02:35;;;;;;;7.70;4.55;;;;;;;16.43;89.30;100686.38;5035397;28;20060;-67
2021/06/30 04:05:01;;;;;;;6.10;4.60;;;;;;;16.38;90.08;100683.97;5051304;28;20044;-66
2021/06/30 04:07:28;;;;;;;6.82;5.07;;;;;;;16.45;89.58;100690.63;5052228;28;20053;-67
2021/06/30 04:09:54;;;;;;;6.95;4.53;;;;;;;16.48;89.41;100687.88;5050817;28;20057;-67
2021/06/30 04:12:21;;;;;;;6.20;4.57;;;;;;;16.47;89.33;100690.56;5047571;28;20052;-67
2021/06/30 04:14:47;;;;;;;5.45;4.45;;;;;;;16.50;89.20;100695.69;5038141;28;20131;-67
2021/06/30 04:17:15;;;;;;;5.93;4.10;;;;;;;16.45;89.44;100695.06;5032630;28;20053;-67
2021/06/30 04:19:42;;;;;;;5.85;4.00;;;;;;;16.45;89.44;100693.25;5032120;28;20057;-67
2021/06/30 04:22:08;;;;;;;5.45;4.13;;;;;;;16.54;89.24;100699.00;5032410;28;20045;-66
2021/06/30 04:24:35;;;;;;;5.95;4.57;;;;;;;16.57;88.74;100689.22;5052300;28;20053;-67
2021/06/30 04:27:01;;;;;;;6.43;4.57;;;;;;;16.59;88.43;100682.13;5031827;28;20103;-67
2021/06/30 04:29:28;;;;;;;6.22;4.60;;;;;;;16.62;89.03;100683.75;5031656;28;20060;-67
2021/06/30 04:31:54;;;;;;;8.48;5.07;;;;;;;16.59;88.75;100676.88;5032257;28;20057;-67
2021/06/30 04:34:22;;;;;;;8.23;5.13;;;;;;;16.50;88.81;100685.19;5038851;28;20494;-67
2021/06/30 04:36:48;;;;;;;8.27;6.00;;;;;;;16.50;88.58;100679.09;5051237;28;20506;-68
2021/06/30 04:39:15;;;;;;;8.40;6.18;;;;;;;16.47;86.46;100680.06;5051878;28;20053;-67
2021/06/30 04:41:42;;;;;;;8.93;6.90;;;;;;;16.46;85.98;100679.22;5051962;28;20133;-67
2021/06/30 04:44:08;;;;;;;11.45;7.30;;;;;;;16.41;86.04;100681.22;5043710;28;20049;-67
2021/06/30 04:46:35;;;;;;;9.77;6.88;;;;;;;16.34;86.84;100676.28;5042501;28;20044;-68
2021/06/30 04:49:01;;;;;;;7.68;6.68;;;;;;;16.25;87.59;100681.03;5046833;28;20056;-68
2021/06/30 04:51:29;;;;;;;10.32;7.68;;;;;;;16.22;88.55;100680.31;5032273;28;20099;-68
2021/06/30 04:53:55;;;;;;;13.27;7.78;;;;;;;16.22;88.67;100680.31;5031780;28;20084;-67
2021/06/30 04:56:27;;;;;;;10.68;8.10;;;;;;;16.27;87.11;100676.53;5031303;28;20050;-68
2021/06/30 04:58:55;;;;;;;11.85;8.20;;;;;;;16.19;88.19;100675.19;5031854;28;20055;-67
2021/06/30 05:01:21;;;;;;;12.23;8.07;;;;;;;16.21;88.66;100665.50;5032617;28;20045;-68
2021/06/30 05:03:48;;;;;;;12.82;8.93;;;;;;;16.26;88.67;100679.25;5035117;28;20045;-68
2021/06/30 05:06:15;;;;;;;12.48;8.68;;;;;;;16.19;89.09;100680.44;5048581;28;20049;-68
2021/06/30 05:08:43;;;;;;;11.32;8.65;;;;;;;16.17;89.04;100684.00;5041043;28;20052;-68
2021/06/30 05:11:09;;;;;;;10.65;8.10;;;;;;;16.19;88.89;100683.06;5032095;28;20053;-67
2021/06/30 05:13:35;;;;;;;11.00;8.50;;;;;;;16.17;89.30;100688.38;5031640;28;20068;-67
2021/06/30 05:16:02;;;;;;;9.50;7.97;;;;;;;16.19;89.28;100685.69;5031519;28;20495;-67
2021/06/30 05:18:28;;;;;;;10.75;7.10;;;;;;;16.10;89.56;100686.94;5031922;28;20076;-68
2021/06/30 05:20:55;;;;;;;8.20;6.38;;;;;;;16.08;89.26;100684.38;5032030;28;20489;-67
2021/06/30 05:23:21;;;;;;;8.13;6.60;;;;;;;16.04;89.67;100689.84;5031735;28;20057;-68
2021/06/30 05:25:49;;;;;;;10.63;6.40;;;;;;;16.00;89.82;100683.88;5032194;28;20049;-68
2021/06/30 05:28:16;;;;;;;15.00;6.50;;;;;;;15.92;90.65;100688.59;5032243;28;20037;-68
2021/06/30 05:30:42;;;;;;;10.70;5.18;;;;;;;15.95;90.68;100680.56;5031522;28;20049;-68
2021/06/30 05:33:08;;;;;;;8.82;5.32;;;;;;;15.95;90.10;100691.06;5031946;28;20434;-68
2021/06/30 05:35:35;;;;;;;11.90;5.63;;;;;;;15.91;90.29;100690.34;5041994;28;20053;-68
2021/06/30 05:38:01;;;;;;;7.00;5.40;;;;;;;15.89;90.82;100694.81;5050994;28;20052;-67
2021/06/30 05:40:28;;;;;;;7.65;5.57;;;;;;;15.88;91.29;100695.72;5051624;28;20063;-68
2021/06/30 05:42:56;;;;;;;9.65;5.90;;;;;;;15.90;91.35;100696.50;5035601;28;20049;-67
2021/06/30 05:45:23;;;;;;;8.35;5.60;;;;;;;15.99;90.37;100698.75;5031362;28;20056;-66
2021/06/30 05:47:50;;;;;;;8.50;5.85;;;;;;;15.96;90.39;100695.41;5031499;28;20053;-69
2021/06/30 05:50:20;;;;;;;8.40;5.13;;;;;;;16.00;90.18;100700.44;5045633;28;20110;-66
2021/06/30 05:52:46;;;;;;;8.88;5.57;;;;;;;16.05;90.06;100697.63;5050346;28;20053;-68
2021/06/30 05:55:13;;;;;;;9.02;5.40;;;;;;;16.08;89.81;100696.63;5051288;28;20071;-66
2021/06/30 05:57:40;;;;;;;7.13;5.47;;;;;;;16.08;90.15;100699.25;5048595;28;20510;-67
2021/06/30 06:00:11;;;;;;;7.93;4.90;;;;;;;16.09;90.68;100696.59;5050216;28;20055;-66
2021/06/30 06:02:38;;;;;;;7.95;5.07;;;;;;;16.18;90.19;100697.94;5051182;28;20052;-66
2021/06/30 06:05:05;;;;;;;6.55;4.18;;;;;;;16.28;89.74;100690.53;5044806;28;20052;-66
2021/06/30 06:07:32;;;;;;;6.72;3.47;;;;;;;16.26;89.48;100698.50;5050839;28;20045;-66
2021/06/30 06:09:59;;;;;;;4.53;2.40;;;;;;;16.19;88.58;100704.91;5040418;28;20048;-67
2021/06/30 06:12:25;;;;;;;6.00;2.45;;;;;;;16.12;88.57;100703.47;5053494;28;20469;-67
2021/06/30 06:14:52;;;;;;;3.78;2.42;;;;;;;16.07;88.55;100708.91;5054906;28;20053;-67
2021/06/30 06:17:20;;;;;;;6.38;2.60;;;;;;;16.05;88.70;100705.50;5038574;28;20064;-66
2021/06/30 06:19:47;;;;;;;3.90;2.67;;;;;;;16.06;88.81;100707.22;5034670;28;20053;-67
2021/06/30 06:22:13;;;;;;;7.30;3.17;;;;;;;16.08;89.22;100700.13;5035073;28;20076;-67
2021/06/30 06:24:41;;;;;;;6.13;3.15;;;;;;;16.06;89.65;100707.22;5034542;28;20049;-66
2021/06/30 06:27:07;;;;;;;4.25;3.10;;;;;;;16.03;89.62;100709.13;5036494;28;20053;-65
2021/06/30 06:29:34;;;;;;;6.60;3.08;;;;;;;16.02;90.14;100708.25;5037788;28;20077;-66
2021/06/30 06:32:01;;;;;;;4.78;3.05;;;;;;;16.07;89.28;100702.84;5034621;28;20056;-66
2021/06/30 06:34:29;;;;;;;4.95;3.58;;;;;;;15.97;90.30;100716.31;5050175;28;20076;-67
2021/06/30 06:36:56;;;;;;;5.38;2.83;;;;;;;15.98;90.22;100709.31;5053989;28;20114;-67
2021/06/30 06:39:22;;;;;;;5.93;2.83;;;;;;;15.96;89.78;100706.75;5055290;28;20057;-66
2021/06/30 06:41:49;;;;;;;5.10;2.92;;;;;;;16.01;89.62;100714.44;5058780;28;20046;-66
2021/06/30 06:44:16;;;;;;;5.45;3.00;;;;;;;16.04;89.08;100714.28;5034664;28;20667;-67
2021/06/30 06:46:43;;;;;;;8.38;3.78;;;;;;;16.07;89.42;100715.94;5036978;28;20098;-66
2021/06/30 06:49:10;;;;;;;5.13;3.33;;;;;;;16.12;89.55;100716.59;5047849;28;20470;-67
2021/06/30 06:51:38;;;;;;;6.35;3.38;;;;;;;16.22;88.47;100711.81;5034933;28;20111;-66
2021/06/30 06:54:06;;;;;;;3.97;2.85;;;;;;;16.21;88.33;100707.47;5034279;28;20053;-66
2021/06/30 06:56:33;;;;;;;4.72;2.92;;;;;;;16.19;88.02;100707.53;5032964;28;20494;-65
2021/06/30 06:59:00;;;;;;;4.28;3.35;;;;;;;16.16;89.45;100718.19;5033711;28;20048;-66
2021/06/30 07:01:27;;;;;;;5.68;3.28;;;;;;;16.15;88.92;100712.06;5034201;28;20045;-66
2021/06/30 07:03:53;;;;;;;7.13;3.50;;;;;;;16.08;89.77;100717.63;5033736;28;20054;-67
2021/06/30 07:06:20;;;;;;;4.45;3.15;;;;;;;16.06;90.37;100722.94;5034096;28;20049;-66
2021/06/30 07:08:48;;;;;;;4.38;2.72;;;;;;;16.05;89.36;100720.41;5052853;28;20049;-66
2021/06/30 07:11:14;;;;;;;4.72;3.55;;;;;;;16.10;90.02;100719.28;5048878;28;20475;-65
2021/06/30 07:13:41;;;;;;;6.47;3.47;;;;;;;16.31;88.90;100721.91;5048340;28;20399;-64
2021/06/30 07:16:08;;;;;;;5.93;3.20;;;;;;;16.54;89.12;100718.25;5043674;28;20071;-65
2021/06/30 07:18:36;;;;;;;7.32;2.78;;;;;;;16.81;87.50;100722.34;5041743;28;20088;-66
2021/06/30 07:21:04;;;;;;;4.30;2.45;;;;;;;17.03;85.82;100720.44;5033581;28;20052;-67
2021/06/30 07:23:31;;;;;;;4.75;2.30;;;;;;;17.17;85.18;100725.06;5040180;28;20426;-67
2021/06/30 07:25:59;;;;;;;4.07;2.42;;;;;;;17.17;85.58;100724.22;5046893;28;20441;-66
2021/06/30 07:28:26;;;;;;;3.95;2.13;;;;;;;17.17;85.49;100730.31;5050361;28;20057;-65
2021/06/30 07:30:53;;;;;;;3.25;1.83;;;;;;;17.20;83.90;100721.44;5033794;28;20046;-67
2021/06/30 07:33:20;;;;;;;4.57;2.00;;;;;;;17.12;84.11;100723.59;5033355;28;20053;-66
2021/06/30 07:35:48;;;;;;;3.30;2.03;;;;;;;17.05;85.39;100723.84;5043723;28;20045;-67
2021/06/30 07:38:15;;;;;;;4.93;2.83;;;;;;;17.12;86.16;100721.81;5041409;28;20383;-65
2021/06/30 07:40:41;;;;;;;4.78;2.30;;;;;;;17.24;85.39;100720.34;5033072;28;20152;-67
2021/06/30 07:43:09;;;;;;;4.10;2.35;;;;;;;17.25;85.51;100732.59;5033030;28;20053;-64
2021/06/30 07:45:36;;;;;;;4.35;2.10;;;;;;;17.33;85.42;100730.44;5032954;28;20045;-66
2021/06/30 07:48:02;;;;;;;4.05;2.17;;;;;;;17.34;84.78;100739.19;5032490;28;20053;-67
2021/06/30 07:50:28;;;;;;;4.03;2.40;;;;;;;17.37;84.13;100739.91;5031696;28;20053;-67
2021/06/30 07:52:55;;;;;;;4.47;2.15;;;;;;;17.39;85.02;100737.19;5033506;28;20122;-67
2021/06/30 07:55:22;;;;;;;3.40;1.95;;;;;;;17.42;83.65;100741.47;5036329;28;20053;-66
2021/06/30 07:57:48;;;;;;;6.60;1.98;;;;;;;17.39;83.44;100742.44;5050277;28;20059;-67
2021/06/30 08:00:17;;;;;;;6.13;2.10;;;;;;;17.32;83.82;100744.50;5052423;28;20053;-67
2021/06/30 08:02:43;;;;;;;3.00;2.10;;;;;;;17.25;83.88;100743.09;5052608;28;20064;-67
2021/06/30 08:05:11;;;;;;;3.20;1.75;;;;;;;17.21;84.66;100746.81;5033899;28;20053;-63
2021/06/30 08:07:37;;;;;;;2.47;1.58;;;;;;;17.24;83.48;100741.38;5032199;28;20056;-67
2021/06/30 08:10:06;;;;;;;7.50;2.38;;;;;;;17.21;83.82;100744.19;5040693;28;20525;-66
2021/06/30 08:12:33;;;;;;;3.42;1.63;;;;;;;17.23;85.22;100743.19;5045446;28;20056;-68
2021/06/30 08:14:59;;;;;;;2.92;1.70;;;;;;;17.43;84.46;100741.38;5048437;28;20053;-67
2021/06/30 08:17:27;;;;;;;6.25;1.83;;;;;;;17.67;84.83;100746.34;5031993;28;20534;-67
2021/06/30 08:19:53;;;;;;;3.88;1.40;;;;;;;17.96;83.58;100750.22;5032289;28;20506;-67
2021/06/30 08:22:20;;;;;;;2.30;1.20;;;;;;;18.22;81.27;100747.19;5031977;28;20057;-68
2021/06/30 08:24:46;;;;;;;3.10;1.30;;;;;;;18.51;80.75;100742.19;5033165;28;20503;-67
2021/06/30 08:27:14;;;;;;;3.15;1.20;;;;;;;18.77;80.11;100744.28;5031724;28;20420;-68
2021/06/30 08:29:43;;;;;;;4.38;1.33;;;;;;;19.17;77.19;100730.78;5046239;28;20052;-67
2021/06/30 08:32:09;;;;;;;2.88;1.30;;;;;;;19.29;76.75;100729.22;5051144;28;20132;-67
2021/06/30 08:34:37;;;;;;;2.95;1.25;;;;;;;19.27;76.14;100723.19;5041387;28;20112;-67
2021/06/30 08:37:05;;;;;;;2.70;1.30;;;;;;;19.32;76.87;100729.06;5036682;28;20099;-66
2021/06/30 08:39:32;;;;;;;3.55;1.50;;;;;;;19.33;77.37;100729.91;5051564;28;20053;-67
2021/06/30 08:41:59;;;;;;;2.47;1.00;;;;;;;19.35;76.75;100734.19;5050098;28;20052;-65
2021/06/30 08:44:26;;;;;;;2.95;1.45;;;;;;;19.44;76.93;100738.06;5031712;28;20049;-66
2021/06/30 08:46:55;;;;;;;3.28;1.50;;;;;;;19.57;75.61;100743.47;5043045;28;20107;-66
2021/06/30 08:49:25;;;;;;;2.55;1.35;;;;;;;19.68;75.81;100735.81;5042874;28;20115;-66
2021/06/30 08:51:54;;;;;;;2.53;1.25;;;;;;;19.86;74.02;100741.00;5038305;28;20132;-67
2021/06/30 08:54:22;;;;;;;3.55;1.85;;;;;;;19.96;75.14;100739.53;5051617;28;20498;-67
2021/06/30 08:56:49;;;;;;;2.75;1.63;;;;;;;19.99;74.37;100743.78;5048741;28;20049;-67
2021/06/30 08:59:16;;;;;;;3.10;1.73;;;;;;;19.78;74.71;100751.09;5044171;28;20060;-65
2021/06/30 09:01:43;;;;;;;2.40;1.45;;;;;;;19.56;74.17;100749.72;5031505;28;20049;-67
2021/06/30 09:04:11;;;;;;;2.92;1.30;;;;;;;19.41;74.79;100743.53;5040683;28;20055;-67
2021/06/30 09:06:38;;;;;;;2.55;1.23;;;;;;;19.48;75.09;100742.25;5044622;28;20051;-66
2021/06/30 09:09:09;;;;;;;3.00;1.55;;;;;;;19.57;73.36;100739.06;5051442;28;20056;-67
2021/06/30 09:11:36;;;;;;;4.75;1.30;;;;;;;19.73;73.71;100736.41;5031836;28;20053;-66
2021/06/30 09:14:20;;;;;;;2.70;1.15;;;;;;;19.85;72.78;100737.50;5031020;28;20045;-67
2021/06/30 09:17:16;;;;;;;2.35;1.30;;;;;;;20.14;74.13;100737.56;5031309;28;20466;-67
2021/06/30 09:20:02;;;;;;;5.30;1.60;;;;;;;20.22;70.55;100739.75;5030893;28;20049;-65
2021/06/30 09:22:40;;;;;;;3.85;1.85;;;;;;;19.99;71.20;100734.06;5031747;28;20056;-68
2021/06/30 09:25:08;;;;;;;3.67;2.20;;;;;;;19.77;72.37;100745.00;5031043;28;20057;-66
2021/06/30 09:27:41;;;;;;;2.92;1.50;;;;;;;19.55;72.28;100745.38;5030911;28;20075;-67
2021/06/30 09:30:10;;;;;;;3.22;1.73;;;;;;;19.15;72.79;100748.44;5031181;28;20057;-68
2021/06/30 09:32:37;;;;;;;3.75;1.90;;;;;;;18.77;74.74;100751.38;5032034;28;20057;-67
2021/06/30 09:35:24;;;;;;;4.10;2.47;;;;;;;18.44;76.19;100758.34;5031257;28;20502;-67
2021/06/30 09:37:51;;;;;;;7.30;3.00;;;;;;;18.19;76.86;100753.47;5041420;28;20045;-68
2021/06/30 09:40:19;;;;;;;4.47;2.60;;;;;;;18.03;78.63;100759.50;5046565;28;20045;-66
2021/06/30 09:42:46;;;;;;;5.15;3.05;;;;;;;18.07;78.75;100757.56;5041867;28;20048;-67
2021/06/30 09:45:17;;;;;;;3.70;2.75;;;;;;;18.12;78.38;100760.84;5031664;28;20442;-67
2021/06/30 09:47:46;;;;;;;4.13;3.00;;;;;;;18.13;78.43;100759.03;5034658;28;20057;-67
2021/06/30 09:50:13;;;;;;;5.80;2.85;;;;;;;18.10;78.83;100762.69;5048118;28;20045;-68
2021/06/30 09:52:41;;;;;;;5.47;3.17;;;;;;;18.19;78.21;100771.91;5055192;28;20056;-67
2021/06/30 09:55:24;;;;;;;5.13;3.50;;;;;;;18.25;77.21;100771.59;5055215;28;20055;-67
2021/06/30 09:57:51;;;;;;;5.70;3.20;;;;;;;18.54;77.48;100768.38;5039016;28;20415;-67
2021/06/30 10:00:18;;;;;;;5.50;3.50;;;;;;;18.69;75.09;100767.56;5035201;28;20076;-67
2021/06/30 10:02:48;;;;;;;4.78;3.40;;;;;;;18.61;76.09;100773.28;5035085;28;20057;-67
2021/06/30 10:05:15;;;;;;;5.00;2.50;;;;;;;18.70;74.48;100778.97;5034879;28;20049;-67
2021/06/30 10:07:42;;;;;;;4.40;2.80;;;;;;;18.61;74.24;100781.16;5034475;28;20410;-67
2021/06/30 10:10:10;;;;;;;4.35;3.20;;;;;;;18.50;74.62;100783.50;5043087;28;20049;-66
2021/06/30 10:12:38;;;;;;;4.90;3.33;;;;;;;18.37;76.02;100787.69;5054259;28;20503;-67
2021/06/30 10:15:06;;;;;;;4.43;2.97;;;;;;;18.40;76.21;100782.28;5036137;28;20155;-66
2021/06/30 10:17:33;;;;;;;4.47;3.28;;;;;;;18.54;75.46;100781.56;5041082;28;20048;-67
2021/06/30 10:20:02;;;;;;;4.88;3.20;;;;;;;18.74;75.78;100778.72;5041490;28;20045;-66
2021/06/30 10:22:29;;;;;;;4.45;3.45;;;;;;;18.91;75.40;100777.84;5034418;28;20057;-66
2021/06/30 10:24:57;;;;;;;5.30;3.80;;;;;;;19.13;71.69;100786.38;5051812;28;20049;-68
2021/06/30 10:27:24;;;;;;;5.45;3.47;;;;;;;19.21;71.01;100784.19;5052416;28;20240;-67
2021/06/30 10:29:55;;;;;;;5.32;3.45;;;;;;;19.27;71.74;100787.34;5034931;28;20517;-67
2021/06/30 10:32:22;;;;;;;6.30;3.50;;;;;;;19.18;72.23;100785.22;5035159;28;20053;-66
2021/06/30 10:34:50;;;;;;;5.95;3.22;;;;;;;19.07;72.87;100792.84;5034302;28;20053;-68
2021/06/30 10:37:19;;;;;;;5.28;3.75;;;;;;;18.97;73.11;100799.56;5034046;28;20065;-67
2021/06/30 10:39:47;;;;;;;5.43;3.17;;;;;;;18.86;73.74;100794.84;5048033;28;20053;-67
2021/06/30 10:42:23;;;;;;;5.20;3.88;;;;;;;18.84;73.15;100792.25;5041419;28;20099;-67
2021/06/30 10:44:52;;;;;;;4.47;3.38;;;;;;;18.85;72.44;100793.13;5034021;28;20525;-67
2021/06/30 10:47:33;;;;;;;6.35;4.05;;;;;;;18.79;74.11;100795.13;5045795;28;20693;-68
2021/06/30 10:50:22;;;;;;;5.30;4.10;;;;;;;18.65;73.45;100798.50;5045716;28;20129;-67
2021/06/30 10:52:50;;;;;;;6.75;3.90;;;;;;;18.34;74.25;100797.44;5049724;28;20132;-67
2021/06/30 10:55:53;;;;;;;7.07;4.68;;;;;;;18.10;75.66;100796.06;5053770;28;20053;-68
2021/06/30 10:58:24;;;;;;;6.65;4.60;;;;;;;18.05;76.73;100806.81;5044770;28;20135;-68
2021/06/30 11:01:04;;;;;;;6.22;4.78;;;;;;;17.98;77.70;100798.38;5034026;28;20072;-65
2021/06/30 11:03:34;;;;;;;7.53;4.78;;;;;;;18.02;76.78;100807.81;5034202;28;20046;-68
2021/06/30 11:06:23;;;;;;;8.82;5.22;;;;;;;17.98;77.25;100806.28;5052535;28;20503;-67
2021/06/30 11:08:51;;;;;;;6.97;4.93;;;;;;;18.07;75.81;100806.75;5053640;28;20053;-68
2021/06/30 11:11:21;;;;;;;6.95;5.05;;;;;;;18.09;75.74;100811.00;5047487;28;20057;-66
2021/06/30 11:14:02;;;;;;;7.63;5.30;;;;;;;18.11;75.42;100800.41;5032946;28;20079;-67
2021/06/30 11:16:56;;;;;;;8.15;5.43;;;;;;;18.33;75.15;100802.81;5032648;28;20538;-68
2021/06/30 11:19:50;;;;;;;7.25;5.20;;;;;;;18.40;74.53;100800.72;4997652;28;20056;-66
2021/06/30 11:22:33;;;;;;;6.77;4.97;;;;;;;18.43;74.79;100800.53;5009797;28;20057;-67
2021/06/30 11:25:01;;;;;;;8.40;5.57;;;;;;;18.57;74.64;100802.44;5033447;28;20517;-66
2021/06/30 11:27:47;;;;;;;8.07;5.50;;;;;;;18.90;73.11;100802.50;5047447;28;20065;-67
2021/06/30 11:30:40;;;;;;;6.97;5.28;;;;;;;19.19;71.16;100799.22;5033689;28;20081;-66
2021/06/30 11:33:15;;;;;;;6.63;4.97;;;;;;;19.37;70.57;100800.00;5033908;28;20060;-67